createdAt,value
2018-02-27T00:00:48.364Z,90.92
2018-02-27T00:01:48.333Z,91.20
2018-02-27T00:02:48.301Z,91.39
2018-02-27T00:03:48.283Z,91.11
2018-02-27T00:04:48.241Z,91.02
2018-02-27T00:05:48.209Z,91.02
2018-02-27T00:06:48.188Z,91.30
2018-02-27T00:07:48.146Z,91.49
2018-02-27T00:08:48.122Z,91.58
2018-02-27T00:09:48.082Z,91.30
2018-02-27T00:10:48.066Z,92.05
2018-02-27T00:11:48.017Z,91.86
2018-02-27T00:12:47.992Z,92.05
2018-02-27T00:13:47.967Z,91.96
2018-02-27T00:14:47.929Z,92.14
2018-02-27T00:15:47.902Z,92.52
2018-02-27T00:16:47.860Z,92.61
2018-02-27T00:17:47.827Z,92.61
2018-02-27T00:18:47.807Z,92.43
2018-02-27T00:19:47.766Z,92.33
2018-02-27T00:20:47.745Z,92.33
2018-02-27T00:21:47.712Z,92.14
2018-02-27T00:22:47.671Z,92.52
2018-02-27T00:23:47.746Z,92.24
2018-02-27T00:24:47.605Z,92.71
2018-02-27T00:25:47.573Z,92.71
2018-02-27T00:26:47.542Z,92.52
2018-02-27T00:27:47.510Z,92.61
2018-02-27T00:28:47.480Z,92.43
2018-02-27T00:29:47.447Z,92.61
2018-02-27T00:30:47.426Z,92.52
2018-02-27T00:31:47.394Z,92.33
2018-02-27T00:32:47.362Z,92.05
2018-02-27T00:33:47.332Z,91.96
2018-02-27T00:34:47.291Z,92.24
2018-02-27T00:35:47.256Z,92.33
2018-02-27T00:36:47.225Z,92.14
2018-02-27T00:37:47.190Z,92.14
2018-02-27T00:38:47.161Z,92.24
2018-02-27T00:39:47.136Z,91.86
2018-02-27T00:40:47.110Z,92.05
2018-02-27T00:41:47.079Z,92.10
2018-02-27T00:42:47.033Z,92.05
2018-02-27T00:43:47.002Z,92.66
2018-02-27T00:44:46.983Z,92.47
2018-02-27T00:45:46.947Z,92.29
2018-02-27T00:46:46.925Z,92.29
2018-02-27T00:47:46.877Z,92.19
2018-02-27T00:48:46.839Z,92.00
2018-02-27T00:49:46.808Z,92.19
2018-02-27T00:50:46.781Z,92.05
2018-02-27T00:51:46.761Z,92.10
2018-02-27T00:52:46.716Z,91.86
2018-02-27T00:53:46.685Z,91.25
2018-02-27T00:54:46.649Z,91.16
2018-02-27T00:55:46.632Z,91.11
2018-02-27T00:56:46.597Z,91.11
2018-02-27T00:57:46.565Z,90.45
2018-02-27T00:58:46.537Z,90.36
2018-02-27T00:59:46.490Z,90.92
2018-02-27T01:00:46.470Z,90.55
2018-02-27T01:01:46.426Z,90.73
2018-02-27T01:02:46.405Z,90.55
2018-02-27T01:03:46.361Z,90.36
2018-02-27T01:04:46.330Z,90.26
2018-02-27T01:05:46.309Z,90.64
2018-02-27T01:06:46.265Z,90.45
2018-02-27T01:07:46.247Z,90.73
2018-02-27T01:08:46.200Z,90.55
2018-02-27T01:09:46.172Z,90.26
2018-02-27T01:10:46.138Z,90.69
2018-02-27T01:11:46.118Z,90.50
2018-02-27T01:12:46.085Z,90.31
2018-02-27T01:13:46.046Z,90.59
2018-02-27T01:14:46.022Z,91.06
2018-02-27T01:15:45.986Z,91.35
2018-02-27T01:16:45.957Z,90.78
2018-02-27T01:17:45.943Z,91.06
2018-02-27T01:18:45.896Z,90.88
2018-02-27T01:19:45.853Z,90.97
2018-02-27T01:20:45.835Z,91.06
2018-02-27T01:21:45.790Z,90.78
2018-02-27T01:22:45.766Z,90.78
2018-02-27T01:23:45.742Z,91.06
2018-02-27T01:24:45.703Z,91.16
2018-02-27T01:25:45.670Z,90.78
2018-02-27T01:26:45.629Z,90.88
2018-02-27T01:27:45.594Z,91.35
2018-02-27T01:28:45.560Z,91.44
2018-02-27T01:29:45.531Z,91.44
2018-02-27T01:30:45.496Z,91.25
2018-02-27T01:31:45.467Z,91.06
2018-02-27T01:32:45.437Z,91.44
2018-02-27T01:33:45.405Z,91.82
2018-02-27T01:34:45.371Z,92.29
2018-02-27T01:35:45.336Z,91.82
2018-02-27T01:36:45.321Z,91.91
2018-02-27T01:37:45.275Z,92.29
2018-02-27T01:38:45.240Z,91.72
2018-02-27T01:39:45.211Z,91.91
2018-02-27T01:40:45.184Z,92.19
2018-02-27T01:41:45.152Z,92.00
2018-02-27T01:42:45.118Z,91.82
2018-02-27T01:43:45.080Z,91.82
2018-02-27T01:44:45.049Z,91.35
2018-02-27T01:45:45.023Z,92.00
2018-02-27T01:46:44.998Z,91.72
2018-02-27T01:47:44.972Z,91.91
2018-02-27T01:48:44.924Z,92.10
2018-02-27T01:49:44.900Z,92.19
2018-02-27T01:50:44.869Z,93.13
2018-02-27T01:51:44.828Z,93.23
2018-02-27T01:52:44.792Z,93.32
2018-02-27T01:53:44.762Z,93.42
2018-02-27T01:54:44.741Z,93.23
2018-02-27T01:55:44.729Z,93.13
2018-02-27T01:56:44.662Z,93.80
2018-02-27T01:57:44.634Z,93.51
2018-02-27T01:58:44.598Z,93.23
2018-02-27T01:59:44.580Z,93.61
2018-02-27T02:00:44.548Z,93.80
2018-02-27T02:01:44.505Z,93.80
2018-02-27T02:02:44.472Z,93.80
2018-02-27T02:03:44.448Z,93.98
2018-02-27T02:04:44.406Z,93.89
2018-02-27T02:05:44.375Z,94.08
2018-02-27T02:06:44.356Z,94.08
2018-02-27T02:07:44.322Z,94.36
2018-02-27T02:08:44.290Z,93.32
2018-02-27T02:09:44.248Z,93.70
2018-02-27T02:10:44.221Z,93.23
2018-02-27T02:11:44.212Z,93.42
2018-02-27T02:12:44.161Z,93.42
2018-02-27T02:13:44.131Z,93.23
2018-02-27T02:14:44.098Z,93.23
2018-02-27T02:15:44.065Z,93.23
2018-02-27T02:16:44.024Z,92.95
2018-02-27T02:17:44.006Z,92.85
2018-02-27T02:18:43.969Z,92.95
2018-02-27T02:19:43.924Z,93.23
2018-02-27T02:20:43.897Z,93.23
2018-02-27T02:21:43.860Z,93.42
2018-02-27T02:22:43.839Z,92.95
2018-02-27T02:23:43.810Z,93.32
2018-02-27T02:24:43.769Z,93.23
2018-02-27T02:25:43.741Z,93.13
2018-02-27T02:26:43.714Z,93.23
2018-02-27T02:27:43.678Z,92.85
2018-02-27T02:28:43.635Z,92.47
2018-02-27T02:29:43.601Z,92.76
2018-02-27T02:30:43.586Z,92.19
2018-02-27T02:31:43.537Z,92.85
2018-02-27T02:32:43.506Z,93.23
2018-02-27T02:33:43.473Z,93.23
2018-02-27T02:34:43.440Z,93.32
2018-02-27T02:35:43.413Z,93.23
2018-02-27T02:36:43.377Z,93.13
2018-02-27T02:37:43.345Z,93.32
2018-02-27T02:38:43.312Z,93.70
2018-02-27T02:39:43.282Z,94.17
2018-02-27T02:40:43.248Z,93.89
2018-02-27T02:41:43.212Z,93.98
2018-02-27T02:42:43.184Z,94.17
2018-02-27T02:43:43.149Z,94.08
2018-02-27T02:44:43.118Z,94.74
2018-02-27T02:45:43.094Z,94.83
2018-02-27T02:46:43.062Z,94.74
2018-02-27T02:47:43.032Z,95.40
2018-02-27T02:48:42.986Z,95.02
2018-02-27T02:49:42.956Z,95.12
2018-02-27T02:50:42.924Z,95.02
2018-02-27T02:51:42.893Z,94.93
2018-02-27T02:52:42.855Z,95.12
2018-02-27T02:53:42.842Z,94.83
2018-02-27T02:54:42.792Z,95.12
2018-02-27T02:55:42.762Z,95.31
2018-02-27T02:56:42.727Z,95.02
2018-02-27T02:57:42.708Z,95.68
2018-02-27T02:58:42.669Z,95.50
2018-02-27T02:59:42.643Z,95.59
2018-02-27T03:00:42.600Z,95.68
2018-02-27T03:01:42.578Z,95.31
2018-02-27T03:02:42.532Z,95.68
2018-02-27T03:03:42.503Z,95.68
2018-02-27T03:04:42.482Z,95.68
2018-02-27T03:05:42.449Z,95.31
2018-02-27T03:06:42.405Z,95.64
2018-02-27T03:07:42.384Z,95.68
2018-02-27T03:08:42.339Z,95.64
2018-02-27T03:09:42.310Z,95.64
2018-02-27T03:10:42.275Z,96.30
2018-02-27T03:11:42.254Z,96.30
2018-02-27T03:12:42.214Z,96.39
2018-02-27T03:13:42.191Z,96.20
2018-02-27T03:14:42.146Z,96.48
2018-02-27T03:15:42.124Z,95.64
2018-02-27T03:16:42.096Z,96.48
2018-02-27T03:17:42.061Z,96.01
2018-02-27T03:18:42.027Z,96.30
2018-02-27T03:19:41.995Z,96.48
2018-02-27T03:20:41.960Z,96.39
2018-02-27T03:21:41.930Z,96.58
2018-02-27T03:22:41.901Z,96.39
2018-02-27T03:23:41.851Z,96.48
2018-02-27T03:24:41.833Z,96.48
2018-02-27T03:25:41.805Z,96.58
2018-02-27T03:26:41.755Z,96.48
2018-02-27T03:27:41.723Z,96.39
2018-02-27T03:28:41.702Z,96.48
2018-02-27T03:29:41.664Z,96.58
2018-02-27T03:30:41.627Z,96.48
2018-02-27T03:31:41.597Z,95.82
2018-02-27T03:32:41.573Z,95.92
2018-02-27T03:33:41.538Z,96.20
2018-02-27T03:34:41.495Z,96.11
2018-02-27T03:35:41.468Z,96.30
2018-02-27T03:36:41.429Z,96.48
2018-02-27T03:37:41.419Z,95.97
2018-02-27T03:38:41.364Z,96.44
2018-02-27T03:39:41.333Z,96.39
2018-02-27T03:40:41.312Z,95.82
2018-02-27T03:41:41.279Z,95.82
2018-02-27T03:42:41.249Z,96.30
2018-02-27T03:43:41.227Z,95.92
2018-02-27T03:44:41.173Z,95.78
2018-02-27T03:45:41.153Z,95.97
2018-02-27T03:46:41.115Z,95.78
2018-02-27T03:47:41.082Z,95.68
2018-02-27T03:48:41.038Z,95.97
2018-02-27T03:49:41.019Z,95.97
2018-02-27T03:50:40.988Z,95.87
2018-02-27T03:51:40.953Z,95.68
2018-02-27T03:52:40.923Z,95.87
2018-02-27T03:53:40.887Z,95.68
2018-02-27T03:54:40.842Z,95.59
2018-02-27T03:55:40.812Z,95.40
2018-02-27T03:56:40.781Z,95.59
2018-02-27T03:57:40.757Z,95.59
2018-02-27T03:58:40.728Z,95.50
2018-02-27T03:59:40.698Z,95.35
2018-02-27T04:00:40.667Z,95.59
2018-02-27T04:01:40.615Z,95.64
2018-02-27T04:02:40.582Z,95.64
2018-02-27T04:03:40.556Z,95.64
2018-02-27T04:04:40.516Z,95.92
2018-02-27T04:05:40.498Z,95.92
2018-02-27T04:06:40.450Z,95.64
2018-02-27T04:07:40.420Z,95.64
2018-02-27T04:08:40.401Z,95.92
2018-02-27T04:09:40.353Z,96.20
2018-02-27T04:10:40.323Z,95.45
2018-02-27T04:11:40.301Z,96.11
2018-02-27T04:12:40.255Z,96.11
2018-02-27T04:13:40.223Z,96.20
2018-02-27T04:14:40.202Z,96.20
2018-02-27T04:15:40.156Z,96.11
2018-02-27T04:16:40.134Z,95.82
2018-02-27T04:17:40.091Z,95.82
2018-02-27T04:18:40.061Z,95.82
2018-02-27T04:19:40.027Z,96.67
2018-02-27T04:20:39.992Z,96.39
2018-02-27T04:21:39.962Z,96.30
2018-02-27T04:22:39.931Z,96.39
2018-02-27T04:23:39.908Z,96.39
2018-02-27T04:24:39.876Z,95.82
2018-02-27T04:25:39.833Z,96.58
2018-02-27T04:26:39.798Z,96.58
2018-02-27T04:27:39.766Z,96.48
2018-02-27T04:28:39.732Z,96.58
2018-02-27T04:29:39.701Z,96.58
2018-02-27T04:30:39.668Z,96.67
2018-02-27T04:31:39.648Z,96.77
2018-02-27T04:32:39.614Z,96.77
2018-02-27T04:33:39.567Z,96.86
2018-02-27T04:34:39.539Z,96.95
2018-02-27T04:35:39.521Z,96.39
2018-02-27T04:36:39.470Z,96.39
2018-02-27T04:37:39.438Z,96.86
2018-02-27T04:38:39.449Z,96.95
2018-02-27T04:39:39.391Z,96.48
2018-02-27T04:40:39.351Z,96.77
2018-02-27T04:41:39.304Z,96.86
2018-02-27T04:42:39.277Z,96.48
2018-02-27T04:43:39.254Z,96.48
2018-02-27T04:44:39.219Z,96.48
2018-02-27T04:45:39.186Z,96.67
2018-02-27T04:46:39.154Z,96.01
2018-02-27T04:47:39.107Z,96.67
2018-02-27T04:48:39.142Z,96.67
2018-02-27T04:49:39.045Z,96.67
2018-02-27T04:50:39.009Z,96.95
2018-02-27T04:51:38.989Z,96.58
2018-02-27T04:52:38.956Z,96.20
2018-02-27T04:53:38.911Z,96.39
2018-02-27T04:54:38.891Z,96.48
2018-02-27T04:55:38.862Z,96.30
2018-02-27T04:56:38.812Z,95.92
2018-02-27T04:57:38.782Z,95.92
2018-02-27T04:58:38.748Z,96.11
2018-02-27T04:59:38.726Z,96.20
2018-02-27T05:00:38.685Z,96.11
2018-02-27T05:01:38.647Z,95.82
2018-02-27T05:02:38.615Z,96.20
2018-02-27T05:03:38.582Z,95.82
2018-02-27T05:04:38.561Z,96.01
2018-02-27T05:05:38.533Z,95.92
2018-02-27T05:06:38.496Z,96.20
2018-02-27T05:07:38.450Z,96.11
2018-02-27T05:08:38.419Z,96.39
2018-02-27T05:09:38.404Z,95.73
2018-02-27T05:10:38.353Z,96.20
2018-02-27T05:11:38.374Z,96.01
2018-02-27T05:12:38.284Z,95.73
2018-02-27T05:13:38.270Z,96.39
2018-02-27T05:14:38.219Z,96.20
2018-02-27T05:15:38.199Z,96.01
2018-02-27T05:16:38.156Z,95.92
2018-02-27T05:17:38.134Z,95.92
2018-02-27T05:18:38.101Z,95.92
2018-02-27T05:19:38.076Z,96.30
2018-02-27T05:20:38.022Z,96.11
2018-02-27T05:21:37.998Z,95.64
2018-02-27T05:22:37.958Z,96.20
2018-02-27T05:23:37.938Z,96.01
2018-02-27T05:24:37.902Z,95.73
2018-02-27T05:25:37.857Z,96.30
2018-02-27T05:26:37.844Z,96.39
2018-02-27T05:27:37.804Z,96.39
2018-02-27T05:28:37.770Z,96.39
2018-02-27T05:29:37.726Z,96.67
2018-02-27T05:30:37.752Z,96.30
2018-02-27T05:31:37.674Z,96.67
2018-02-27T05:32:37.640Z,96.77
2018-02-27T05:33:37.608Z,96.58
2018-02-27T05:34:37.587Z,96.30
2018-02-27T05:35:37.528Z,96.77
2018-02-27T05:36:37.496Z,96.58
2018-02-27T05:37:37.477Z,96.48
2018-02-27T05:38:37.430Z,96.77
2018-02-27T05:39:37.426Z,96.95
2018-02-27T05:40:37.376Z,96.95
2018-02-27T05:41:37.345Z,96.95
2018-02-27T05:42:37.298Z,97.14
2018-02-27T05:43:37.264Z,97.05
2018-02-27T05:44:37.239Z,97.14
2018-02-27T05:45:37.209Z,96.86
2018-02-27T05:46:37.166Z,97.05
2018-02-27T05:47:37.145Z,96.86
2018-02-27T05:48:37.105Z,96.86
2018-02-27T05:49:37.082Z,96.67
2018-02-27T05:50:37.045Z,96.30
2018-02-27T05:51:37.002Z,96.86
2018-02-27T05:52:36.967Z,96.67
2018-02-27T05:53:36.934Z,97.05
2018-02-27T05:54:36.912Z,96.58
2018-02-27T05:55:36.869Z,96.25
2018-02-27T05:56:36.835Z,96.48
2018-02-27T05:57:36.801Z,97.05
2018-02-27T05:58:36.772Z,97.05
2018-02-27T05:59:36.743Z,96.77
2018-02-27T06:00:36.717Z,97.09
2018-02-27T06:01:36.669Z,96.48
2018-02-27T06:02:36.679Z,96.81
2018-02-27T06:03:36.605Z,96.62
2018-02-27T06:04:36.570Z,96.53
2018-02-27T06:05:36.552Z,96.53
2018-02-27T06:06:36.504Z,96.86
2018-02-27T06:07:36.470Z,96.77
2018-02-27T06:08:36.436Z,96.86
2018-02-27T06:09:36.416Z,96.95
2018-02-27T06:10:36.374Z,96.86
2018-02-27T06:11:36.349Z,97.05
2018-02-27T06:12:36.303Z,96.86
2018-02-27T06:13:36.271Z,96.86
2018-02-27T06:14:36.244Z,96.48
2018-02-27T06:15:36.221Z,96.95
2018-02-27T06:16:36.184Z,97.05
2018-02-27T06:17:36.151Z,96.48
2018-02-27T06:18:36.129Z,96.48
2018-02-27T06:19:36.089Z,96.48
2018-02-27T06:20:36.041Z,96.67
2018-02-27T06:21:36.019Z,96.58
2018-02-27T06:22:35.986Z,96.20
2018-02-27T06:23:35.953Z,96.11
2018-02-27T06:24:35.907Z,96.11
2018-02-27T06:25:35.877Z,96.11
2018-02-27T06:26:35.854Z,96.11
2018-02-27T06:27:35.815Z,95.35
2018-02-27T06:28:35.776Z,95.82
2018-02-27T06:29:35.748Z,95.26
2018-02-27T06:30:35.724Z,95.82
2018-02-27T06:31:35.678Z,96.20
2018-02-27T06:32:35.645Z,95.92
2018-02-27T06:33:35.616Z,95.82
2018-02-27T06:34:35.578Z,95.82
2018-02-27T06:35:35.558Z,96.11
2018-02-27T06:36:35.530Z,95.92
2018-02-27T06:37:35.495Z,96.20
2018-02-27T06:38:35.449Z,95.73
2018-02-27T06:39:35.416Z,95.45
2018-02-27T06:40:35.400Z,95.73
2018-02-27T06:41:35.348Z,95.50
2018-02-27T06:42:35.317Z,95.87
2018-02-27T06:43:35.282Z,95.54
2018-02-27T06:44:35.250Z,95.87
2018-02-27T06:45:35.217Z,95.50
2018-02-27T06:46:35.196Z,95.31
2018-02-27T06:47:35.171Z,95.21
2018-02-27T06:48:35.131Z,95.21
2018-02-27T06:49:35.098Z,95.50
2018-02-27T06:50:35.058Z,94.74
2018-02-27T06:51:35.022Z,95.21
2018-02-27T06:52:35.003Z,95.12
2018-02-27T06:53:34.960Z,94.93
2018-02-27T06:54:34.928Z,94.65
2018-02-27T06:55:34.904Z,95.31
2018-02-27T06:56:34.871Z,95.21
2018-02-27T06:57:34.844Z,94.65
2018-02-27T06:58:34.795Z,94.65
2018-02-27T06:59:34.774Z,95.59
2018-02-27T07:00:34.741Z,94.93
2018-02-27T07:01:34.708Z,95.12
2018-02-27T07:02:34.668Z,94.55
2018-02-27T07:03:34.643Z,94.93
2018-02-27T07:04:34.610Z,94.83
2018-02-27T07:05:34.580Z,95.12
2018-02-27T07:06:34.536Z,94.83
2018-02-27T07:07:34.513Z,95.12
2018-02-27T07:08:34.480Z,95.40
2018-02-27T07:09:34.449Z,95.78
2018-02-27T07:10:34.417Z,95.02
2018-02-27T07:11:34.417Z,94.93
2018-02-27T07:12:34.340Z,94.93
2018-02-27T07:13:34.321Z,94.93
2018-02-27T07:14:34.275Z,94.93
2018-02-27T07:15:34.247Z,95.12
2018-02-27T07:16:34.223Z,94.83
2018-02-27T07:17:34.177Z,95.12
2018-02-27T07:18:34.157Z,95.02
2018-02-27T07:19:34.116Z,94.65
2018-02-27T07:20:34.085Z,94.83
2018-02-27T07:21:34.055Z,95.12
2018-02-27T07:22:34.016Z,94.93
2018-02-27T07:23:33.985Z,95.02
2018-02-27T07:24:33.966Z,95.02
2018-02-27T07:25:33.921Z,95.02
2018-02-27T07:26:33.888Z,94.55
2018-02-27T07:27:33.861Z,94.46
2018-02-27T07:28:33.829Z,94.74
2018-02-27T07:29:33.804Z,94.27
2018-02-27T07:30:33.760Z,94.46
2018-02-27T07:31:33.733Z,94.17
2018-02-27T07:32:33.694Z,94.55
2018-02-27T07:33:33.660Z,94.46
2018-02-27T07:34:33.638Z,94.27
2018-02-27T07:35:33.599Z,93.70
2018-02-27T07:36:33.567Z,93.98
2018-02-27T07:37:33.555Z,93.89
2018-02-27T07:38:33.503Z,94.27
2018-02-27T07:39:33.483Z,93.80
2018-02-27T07:40:33.437Z,94.46
2018-02-27T07:41:33.414Z,93.80
2018-02-27T07:42:33.389Z,93.80
2018-02-27T07:43:33.343Z,93.89
2018-02-27T07:44:33.311Z,94.08
2018-02-27T07:45:33.277Z,94.17
2018-02-27T07:46:33.248Z,94.17
2018-02-27T07:47:33.229Z,93.56
2018-02-27T07:48:33.194Z,93.75
2018-02-27T07:49:33.151Z,93.47
2018-02-27T07:50:33.128Z,93.09
2018-02-27T07:51:33.091Z,92.80
2018-02-27T07:52:33.092Z,92.71
2018-02-27T07:53:33.024Z,92.99
2018-02-27T07:54:32.993Z,93.18
2018-02-27T07:55:32.964Z,93.18
2018-02-27T07:56:32.943Z,92.52
2018-02-27T07:57:32.900Z,93.09
2018-02-27T07:58:32.880Z,92.99
2018-02-27T07:59:32.857Z,92.71
2018-02-27T08:00:32.816Z,92.80
2018-02-27T08:01:32.773Z,92.43
2018-02-27T08:02:32.746Z,92.14
2018-02-27T08:03:32.711Z,92.14
2018-02-27T08:04:32.682Z,91.49
2018-02-27T08:05:32.660Z,91.30
2018-02-27T08:06:32.619Z,91.49
2018-02-27T08:07:32.592Z,91.39
2018-02-27T08:08:32.557Z,91.67
2018-02-27T08:09:32.528Z,91.30
2018-02-27T08:10:32.507Z,91.30
2018-02-27T08:11:32.463Z,91.20
2018-02-27T08:12:32.445Z,91.49
2018-02-27T08:13:32.405Z,91.11
2018-02-27T08:14:32.370Z,90.64
2018-02-27T08:15:32.353Z,90.55
2018-02-27T08:16:32.309Z,90.92
2018-02-27T08:17:32.293Z,90.55
2018-02-27T08:18:32.251Z,90.45
2018-02-27T08:19:32.217Z,90.36
2018-02-27T08:20:32.189Z,90.92
2018-02-27T08:21:32.160Z,90.73
2018-02-27T08:22:32.139Z,91.20
2018-02-27T08:23:32.095Z,91.39
2018-02-27T08:24:32.062Z,91.20
2018-02-27T08:25:32.042Z,91.11
2018-02-27T08:26:32.002Z,91.11
2018-02-27T08:27:31.984Z,91.02
2018-02-27T08:28:31.938Z,90.83
2018-02-27T08:29:31.911Z,91.11
2018-02-27T08:30:31.876Z,91.39
2018-02-27T08:31:31.850Z,90.64
2018-02-27T08:32:31.815Z,90.64
2018-02-27T08:33:31.785Z,90.73
2018-02-27T08:34:31.752Z,90.45
2018-02-27T08:35:31.725Z,90.45
2018-02-27T08:36:31.690Z,90.36
2018-02-27T08:37:31.665Z,90.64
2018-02-27T08:38:31.638Z,89.98
2018-02-27T08:39:31.595Z,90.07
2018-02-27T08:40:31.566Z,89.79
2018-02-27T08:41:31.534Z,90.17
2018-02-27T08:42:31.516Z,89.88
2018-02-27T08:43:31.475Z,89.88
2018-02-27T08:44:31.452Z,89.60
2018-02-27T08:45:31.412Z,89.98
2018-02-27T08:46:31.390Z,89.88
2018-02-27T08:47:31.359Z,89.22
2018-02-27T08:48:31.316Z,88.84
2018-02-27T08:49:31.283Z,88.84
2018-02-27T08:50:31.256Z,88.65
2018-02-27T08:51:31.221Z,88.47
2018-02-27T08:52:31.189Z,88.28
2018-02-27T08:53:31.162Z,88.65
2018-02-27T08:54:31.132Z,88.47
2018-02-27T08:55:31.099Z,88.37
2018-02-27T08:56:31.081Z,88.04
2018-02-27T08:57:31.047Z,87.43
2018-02-27T08:58:31.007Z,87.43
2018-02-27T08:59:30.973Z,87.57
2018-02-27T09:00:30.950Z,87.19
2018-02-27T09:01:30.922Z,87.19
2018-02-27T09:02:30.896Z,87.10
2018-02-27T09:03:30.849Z,87.48
2018-02-27T09:04:30.818Z,87.29
2018-02-27T09:05:30.788Z,86.44
2018-02-27T09:06:30.769Z,86.63
2018-02-27T09:07:30.724Z,86.25
2018-02-27T09:08:30.709Z,85.96
2018-02-27T09:09:30.668Z,86.44
2018-02-27T09:10:30.645Z,85.96
2018-02-27T09:11:30.613Z,85.77
2018-02-27T09:12:30.575Z,85.02
2018-02-27T09:13:30.543Z,85.30
2018-02-27T09:14:30.508Z,85.59
2018-02-27T09:15:30.480Z,85.21
2018-02-27T09:16:30.460Z,84.92
2018-02-27T09:17:30.428Z,85.02
2018-02-27T09:18:30.387Z,85.02
2018-02-27T09:19:30.368Z,85.49
2018-02-27T09:20:30.365Z,85.40
2018-02-27T09:21:30.305Z,85.21
2018-02-27T09:22:30.263Z,84.69
2018-02-27T09:23:30.239Z,83.84
2018-02-27T09:24:30.213Z,84.12
2018-02-27T09:25:30.228Z,83.74
2018-02-27T09:26:30.144Z,83.08
2018-02-27T09:27:30.142Z,82.51
2018-02-27T09:28:30.103Z,81.57
2018-02-27T09:29:30.099Z,81.38
2018-02-27T09:30:30.024Z,80.72
2018-02-27T09:31:30.004Z,80.15
2018-02-27T09:32:29.962Z,79.97
2018-02-27T09:33:29.942Z,80.06
2018-02-27T09:34:29.924Z,79.68
2018-02-27T09:35:29.889Z,80.25
2018-02-27T09:36:29.853Z,79.87
2018-02-27T09:37:29.883Z,80.53
2018-02-27T09:38:29.842Z,80.34
2018-02-27T09:39:29.766Z,80.63
2018-02-27T09:40:29.739Z,80.91
2018-02-27T09:41:29.706Z,80.91
2018-02-27T09:42:29.665Z,81.48
2018-02-27T09:43:29.648Z,81.38
2018-02-27T09:44:29.623Z,80.82
2018-02-27T09:45:29.583Z,80.25
2018-02-27T09:46:29.547Z,80.63
2018-02-27T09:47:29.525Z,80.34
2018-02-27T09:48:29.492Z,80.44
2018-02-27T09:49:29.474Z,80.72
2018-02-27T09:50:29.445Z,81.01
2018-02-27T09:51:29.407Z,80.44
2018-02-27T09:52:29.374Z,80.34
2018-02-27T09:53:29.356Z,80.00
2018-02-27T09:54:29.313Z,80.00
2018-02-27T09:55:29.288Z,79.25
2018-02-27T09:56:29.271Z,79.35
2018-02-27T09:57:29.229Z,78.87
2018-02-27T09:58:29.199Z,78.68
2018-02-27T09:59:29.172Z,78.40
2018-02-27T10:00:29.143Z,77.93
2018-02-27T10:01:29.141Z,77.93
2018-02-27T10:02:29.096Z,77.74
2018-02-27T10:03:29.069Z,76.42
2018-02-27T10:04:29.038Z,76.74
2018-02-27T10:05:29.011Z,75.42
2018-02-27T10:06:28.996Z,75.76
2018-02-27T10:07:28.944Z,75.38
2018-02-27T10:08:28.928Z,75.79
2018-02-27T10:09:28.898Z,75.47
2018-02-27T10:10:28.871Z,75.19
2018-02-27T10:11:28.841Z,75.76
2018-02-27T10:12:28.800Z,75.28
2018-02-27T10:13:28.786Z,75.47
2018-02-27T10:14:28.751Z,75.38
2018-02-27T10:15:28.730Z,75.85
2018-02-27T10:16:28.691Z,75.28
2018-02-27T10:17:28.663Z,75.66
2018-02-27T10:18:28.638Z,75.98
2018-02-27T10:19:28.607Z,74.66
2018-02-27T10:20:28.578Z,72.86
2018-02-27T10:21:28.564Z,73.71
2018-02-27T10:22:28.525Z,73.43
2018-02-27T10:23:28.497Z,73.33
2018-02-27T10:24:28.469Z,72.39
2018-02-27T10:25:28.454Z,71.64
2018-02-27T10:26:28.439Z,70.73
2018-02-27T10:27:28.450Z,70.35
2018-02-27T10:28:28.358Z,70.25
2018-02-27T10:29:28.349Z,68.93
2018-02-27T10:30:28.315Z,68.27
2018-02-27T10:31:28.288Z,67.98
2018-02-27T10:32:28.261Z,67.32
2018-02-27T10:33:28.228Z,67.98
2018-02-27T10:34:28.198Z,68.17
2018-02-27T10:35:28.196Z,68.84
2018-02-27T10:36:28.145Z,68.84
2018-02-27T10:37:28.129Z,68.65
2018-02-27T10:38:28.104Z,69.02
2018-02-27T10:39:28.116Z,68.55
2018-02-27T10:40:28.042Z,69.65
2018-02-27T10:41:28.012Z,70.78
2018-02-27T10:42:27.997Z,71.83
2018-02-27T10:43:27.960Z,73.24
2018-02-27T10:44:27.943Z,74.38
2018-02-27T10:45:27.905Z,75.51
2018-02-27T10:46:27.882Z,76.17
2018-02-27T10:47:27.863Z,77.02
2018-02-27T10:48:27.829Z,76.93
2018-02-27T10:49:27.808Z,77.87
2018-02-27T10:50:27.770Z,78.25
2018-02-27T10:51:27.755Z,78.63
2018-02-27T10:52:27.727Z,78.59
2018-02-27T10:53:27.703Z,78.72
2018-02-27T10:54:27.663Z,78.50
2018-02-27T10:55:27.645Z,78.21
2018-02-27T10:56:27.611Z,78.59
2018-02-27T10:57:27.577Z,78.53
2018-02-27T10:58:27.550Z,78.50
2018-02-27T10:59:27.522Z,78.25
2018-02-27T11:00:27.495Z,77.74
2018-02-27T11:01:27.468Z,78.34
2018-02-27T11:02:27.452Z,77.69
2018-02-27T11:03:27.411Z,77.36
2018-02-27T11:04:27.394Z,77.64
2018-02-27T11:05:27.352Z,76.89
2018-02-27T11:06:27.337Z,76.79
2018-02-27T11:07:27.300Z,77.45
2018-02-27T11:08:27.282Z,77.93
2018-02-27T11:09:27.254Z,78.06
2018-02-27T11:10:27.212Z,77.78
2018-02-27T11:11:27.187Z,76.74
2018-02-27T11:12:27.158Z,76.07
2018-02-27T11:13:27.141Z,75.79
2018-02-27T11:14:27.103Z,75.60
2018-02-27T11:15:27.086Z,74.95
2018-02-27T11:16:27.047Z,74.95
2018-02-27T11:17:27.027Z,72.71
2018-02-27T11:18:26.990Z,71.67
2018-02-27T11:19:26.980Z,70.54
2018-02-27T11:20:26.935Z,70.35
2018-02-27T11:21:26.920Z,70.54
2018-02-27T11:22:26.880Z,69.78
2018-02-27T11:23:26.867Z,70.54
2018-02-27T11:24:26.836Z,70.57
2018-02-27T11:25:26.799Z,69.91
2018-02-27T11:26:26.777Z,70.10
2018-02-27T11:27:26.745Z,69.72
2018-02-27T11:28:26.736Z,69.12
2018-02-27T11:29:26.703Z,70.73
2018-02-27T11:30:26.678Z,71.11
2018-02-27T11:31:26.651Z,70.82
2018-02-27T11:32:26.612Z,70.73
2018-02-27T11:33:26.584Z,70.92
2018-02-27T11:34:26.559Z,71.48
2018-02-27T11:35:26.546Z,72.43
2018-02-27T11:36:26.506Z,71.30
2018-02-27T11:37:26.479Z,73.28
2018-02-27T11:38:26.464Z,73.85
2018-02-27T11:39:26.427Z,72.47
2018-02-27T11:40:26.412Z,69.91
2018-02-27T11:41:26.374Z,68.21
2018-02-27T11:42:26.357Z,67.93
2018-02-27T11:43:26.323Z,68.02
2018-02-27T11:44:26.305Z,66.98
2018-02-27T11:45:26.298Z,67.26
2018-02-27T11:46:26.254Z,67.17
2018-02-27T11:47:26.228Z,65.94
2018-02-27T11:48:26.189Z,66.22
2018-02-27T11:49:26.163Z,66.13
2018-02-27T11:50:26.137Z,67.45
2018-02-27T11:51:26.128Z,67.07
2018-02-27T11:52:26.101Z,65.21
2018-02-27T11:53:26.075Z,65.18
2018-02-27T11:54:26.049Z,65.66
2018-02-27T11:55:26.023Z,65.78
2018-02-27T11:56:26.000Z,64.55
2018-02-27T11:57:25.973Z,62.21
2018-02-27T11:58:25.940Z,60.16
2018-02-27T11:59:25.914Z,58.17
2018-02-27T12:00:25.888Z,56.94
2018-02-27T12:01:25.866Z,55.99
2018-02-27T12:02:25.839Z,55.36
2018-02-27T12:03:25.823Z,54.03
2018-02-27T12:04:25.798Z,53.44
2018-02-27T12:05:25.772Z,52.70
2018-02-27T12:06:25.750Z,52.48
2018-02-27T12:07:25.726Z,53.44
2018-02-27T12:08:25.719Z,54.22
2018-02-27T12:09:25.685Z,53.27
2018-02-27T12:10:25.664Z,52.51
2018-02-27T12:11:25.640Z,52.23
2018-02-27T12:12:25.620Z,52.70
2018-02-27T12:13:25.600Z,52.89
2018-02-27T12:14:25.584Z,51.28
2018-02-27T12:15:25.561Z,50.93
2018-02-27T12:16:25.536Z,49.79
2018-02-27T12:17:25.517Z,49.05
2018-02-27T12:18:25.500Z,48.39
2018-02-27T12:19:25.506Z,46.59
2018-02-27T12:20:25.460Z,46.04
2018-02-27T12:21:25.444Z,44.81
2018-02-27T12:22:25.420Z,43.21
2018-02-27T12:23:25.403Z,42.53
2018-02-27T12:24:25.384Z,42.24
2018-02-27T12:25:25.367Z,42.17
2018-02-27T12:26:25.349Z,41.96
2018-02-27T12:27:25.345Z,41.60
2018-02-27T12:28:25.313Z,40.39
2018-02-27T12:29:25.308Z,38.85
2018-02-27T12:30:25.284Z,39.89
2018-02-27T12:31:25.284Z,40.34
2018-02-27T12:32:25.263Z,41.85
2018-02-27T12:33:25.232Z,41.85
2018-02-27T12:34:25.258Z,41.20
2018-02-27T12:35:25.194Z,40.82
2018-02-27T12:36:25.177Z,40.63
2018-02-27T12:37:25.170Z,39.89
2018-02-27T12:38:25.142Z,39.53
2018-02-27T12:39:25.135Z,38.20
2018-02-27T12:40:25.107Z,37.35
2018-02-27T12:41:25.105Z,36.13
2018-02-27T12:42:25.076Z,36.51
2018-02-27T12:43:25.054Z,36.04
2018-02-27T12:44:25.039Z,35.27
2018-02-27T12:45:25.029Z,34.80
2018-02-27T12:46:24.999Z,34.13
2018-02-27T12:47:24.983Z,34.02
2018-02-27T12:48:24.964Z,33.92
2018-02-27T12:49:24.948Z,35.52
2018-02-27T12:50:24.944Z,35.35
2018-02-27T12:51:24.926Z,35.73
2018-02-27T12:52:24.897Z,34.78